createdAt,value
2018-06-19T00:02:23.831Z,22.10
2018-06-19T00:04:59.189Z,22.10
2018-06-19T00:07:32.764Z,21.90
2018-06-19T00:10:45.853Z,21.80
2018-06-19T00:13:20.466Z,21.80
2018-06-19T00:16:02.963Z,21.70
2018-06-19T00:18:40.426Z,21.60
2018-06-19T00:21:32.414Z,21.50
2018-06-19T00:24:10.926Z,21.40
2018-06-19T00:26:56.507Z,21.20
2018-06-19T00:29:32.180Z,21.20
2018-06-19T00:32:04.915Z,21.20
2018-06-19T00:35:04.099Z,21.20
2018-06-19T00:37:52.857Z,21.20
2018-06-19T00:40:26.790Z,21.10
2018-06-19T00:45:42.619Z,20.80
2018-06-19T00:48:15.195Z,20.70
2018-06-19T00:50:56.054Z,20.70
2018-06-19T00:53:37.688Z,20.60
2018-06-19T00:56:25.050Z,20.50
2018-06-19T02:22:00.100Z,19.60
2018-06-19T02:37:22.776Z,19.90
2018-06-19T02:40:08.226Z,20.00
2018-06-19T02:46:30.995Z,20.00
2018-06-19T02:49:17.860Z,20.00
2018-06-19T02:52:09.195Z,20.10
2018-06-19T02:54:57.581Z,20.10
2018-06-19T03:00:37.279Z,20.00
2018-06-19T03:03:20.818Z,20.00
2018-06-19T03:06:06.628Z,19.90
2018-06-19T03:11:53.096Z,19.90
2018-06-19T03:14:42.199Z,19.80
2018-06-19T03:17:45.200Z,19.80
2018-06-19T03:20:34.325Z,19.90
2018-06-19T03:26:22.459Z,20.00
2018-06-19T03:40:07.104Z,20.00
2018-06-19T03:46:16.020Z,20.00
2018-06-19T03:48:56.095Z,19.90
2018-06-19T03:54:33.045Z,19.90
2018-06-19T03:57:20.428Z,20.00
2018-06-19T04:16:08.921Z,20.00
2018-06-19T04:18:55.613Z,20.10
2018-06-19T04:22:03.687Z,20.10
2018-06-19T04:24:55.763Z,20.10
2018-06-19T04:30:38.645Z,20.30
2018-06-19T04:33:27.289Z,20.30
2018-06-19T04:44:49.667Z,20.50
2018-06-19T04:52:22.790Z,20.40
2018-06-19T04:54:59.848Z,20.30
2018-06-19T04:57:35.031Z,20.40
2018-06-19T05:00:09.941Z,20.40
2018-06-19T05:05:47.870Z,20.30
2018-06-19T05:08:26.436Z,20.30
2018-06-19T05:10:59.170Z,20.20
2018-06-19T05:13:33.496Z,20.30
2018-06-19T05:16:08.426Z,20.30
2018-06-19T05:18:41.458Z,20.20
2018-06-19T05:21:13.602Z,20.10
2018-06-19T05:23:45.797Z,20.10
2018-06-19T05:26:22.007Z,20.20
2018-06-19T05:28:54.999Z,20.20
2018-06-19T05:31:27.407Z,20.10
2018-06-19T05:33:59.628Z,20.10
2018-06-19T05:36:31.813Z,20.10
2018-06-19T05:39:08.910Z,20.10
2018-06-19T05:41:41.426Z,20.10
2018-06-19T05:44:13.461Z,20.10
2018-06-19T05:46:45.591Z,20.20
2018-06-19T05:49:17.696Z,20.20
2018-06-19T05:51:49.750Z,20.20
2018-06-19T05:54:21.943Z,20.20
2018-06-19T05:56:54.698Z,20.20
2018-06-19T05:59:31.738Z,20.20
2018-06-19T06:02:03.990Z,20.20
2018-06-19T06:04:38.567Z,20.10
2018-06-19T06:07:47.390Z,20.20
2018-06-19T06:10:19.825Z,20.20
2018-06-19T06:12:52.512Z,20.10
2018-06-19T06:15:24.712Z,20.10
2018-06-19T06:18:04.300Z,20.10
2018-06-19T06:20:38.234Z,20.10
2018-06-19T06:23:15.658Z,20.10
2018-06-19T06:25:47.829Z,20.00
2018-06-19T06:28:21.290Z,20.00
2018-06-19T06:30:53.293Z,20.00
2018-06-19T06:33:30.266Z,20.00
2018-06-19T06:36:03.713Z,19.90
2018-06-19T06:38:36.245Z,19.90
2018-06-19T06:41:09.630Z,19.90
2018-06-19T06:43:43.496Z,19.80
2018-06-19T06:46:16.427Z,19.70
2018-06-19T06:49:04.176Z,19.50
2018-06-19T07:13:09.596Z,18.60
2018-06-19T07:15:49.506Z,18.60
2018-06-19T07:18:50.370Z,18.60
2018-06-19T07:21:44.776Z,18.60
2018-06-19T07:24:20.905Z,18.60
2018-06-19T07:27:14.369Z,18.60
2018-06-19T07:30:05.317Z,18.60
2018-06-19T07:32:55.814Z,18.60
2018-06-19T07:35:31.543Z,18.50
2018-06-19T07:38:08.466Z,18.50
2018-06-19T07:40:42.319Z,18.50
2018-06-19T07:43:14.589Z,18.50
2018-06-19T07:45:47.998Z,18.50
2018-06-19T07:48:20.691Z,18.50
2018-06-19T07:50:52.815Z,18.50
2018-06-19T07:53:32.706Z,18.40
2018-06-19T07:56:04.932Z,18.50
2018-06-19T07:58:39.158Z,18.50
2018-06-19T08:01:32.553Z,18.40
2018-06-19T08:04:08.300Z,18.40
2018-06-19T08:06:46.302Z,18.40
2018-06-19T08:09:29.590Z,18.40
2018-06-19T08:15:45.642Z,18.40
2018-06-19T08:18:21.143Z,18.30
2018-06-19T08:21:01.173Z,18.30
2018-06-19T08:23:45.836Z,18.30
2018-06-19T08:26:31.695Z,18.20
2018-06-19T08:29:07.562Z,18.20
2018-06-19T08:31:45.437Z,18.20
2018-06-19T08:43:10.577Z,18.20
2018-06-19T08:45:44.079Z,18.10
2018-06-19T08:48:16.561Z,18.10
2018-06-19T08:50:49.128Z,18.10
2018-06-19T08:53:27.950Z,18.20
2018-06-19T08:56:00.372Z,18.20
2018-06-19T08:58:34.477Z,18.20
2018-06-19T09:01:12.466Z,18.20
2018-06-19T09:03:49.461Z,18.20
2018-06-19T09:06:21.834Z,18.10
2018-06-19T09:08:56.195Z,18.20
2018-06-19T09:11:31.877Z,18.20
2018-06-19T09:14:04.249Z,18.10
2018-06-19T09:16:36.442Z,18.00
2018-06-19T09:19:09.869Z,18.00
2018-06-19T09:21:42.181Z,17.90
2018-06-19T09:24:15.774Z,17.90
2018-06-19T09:26:48.073Z,17.80
2018-06-19T09:29:20.321Z,17.80
2018-06-19T09:31:57.273Z,17.80
2018-06-19T09:34:30.274Z,17.80
2018-06-19T09:37:02.497Z,17.80
2018-06-19T09:39:42.358Z,17.80
2018-06-19T09:42:14.811Z,17.80
2018-06-19T09:44:48.438Z,17.80
2018-06-19T09:47:25.831Z,17.70
2018-06-19T09:49:58.860Z,17.70
2018-06-19T09:52:40.058Z,17.60
2018-06-19T09:58:00.846Z,17.60
2018-06-19T10:00:40.921Z,17.50
2018-06-19T10:03:16.179Z,17.50
2018-06-19T10:05:51.632Z,17.40
2018-06-19T10:08:24.958Z,17.40
2018-06-19T10:12:10.688Z,17.40
2018-06-19T10:14:51.617Z,17.40
2018-06-19T10:32:02.716Z,17.10
2018-06-19T10:34:38.256Z,17.20
2018-06-19T11:05:50.816Z,17.20
2018-06-19T11:11:56.380Z,17.20
2018-06-19T11:14:34.998Z,17.10
2018-06-19T11:17:11.157Z,17.00
2018-06-19T11:52:29.548Z,16.90
2018-06-19T11:55:02.566Z,16.90
2018-06-19T11:58:15.781Z,17.00
2018-06-19T12:00:49.773Z,17.10
2018-06-19T12:03:32.231Z,17.10
2018-06-19T12:06:21.232Z,17.20
2018-06-19T12:08:55.777Z,17.20
2018-06-19T12:11:32.194Z,17.20
2018-06-19T12:14:09.385Z,17.20
2018-06-19T12:16:43.971Z,17.20
2018-06-19T12:19:21.120Z,17.30
2018-06-19T12:21:59.144Z,17.40
2018-06-19T12:24:41.027Z,17.50
2018-06-19T12:30:01.617Z,17.60
2018-06-19T12:33:22.308Z,17.70
2018-06-19T12:41:25.249Z,18.10
2018-06-19T12:44:30.207Z,18.30
2018-06-19T12:47:12.563Z,18.40
2018-06-19T12:52:36.919Z,18.60
2018-06-19T12:58:12.677Z,18.60
2018-06-19T13:00:46.007Z,18.50
2018-06-19T13:03:28.680Z,18.50
2018-06-19T13:06:14.528Z,18.50
2018-06-19T13:09:02.513Z,18.40
2018-06-19T13:11:47.330Z,18.50
2018-06-19T13:14:37.508Z,18.40
2018-06-19T13:20:13.508Z,18.40
2018-06-19T13:22:53.344Z,18.40
2018-06-19T13:25:30.738Z,18.40
2018-06-19T13:28:10.483Z,18.40
2018-06-19T13:30:52.799Z,18.50
2018-06-19T13:33:33.102Z,18.50
2018-06-19T13:36:05.624Z,18.60
2018-06-19T13:38:43.180Z,18.60
2018-06-19T13:41:26.060Z,18.60
2018-06-19T13:45:08.410Z,18.60
2018-06-19T13:47:51.628Z,18.60
2018-06-19T13:50:24.841Z,18.70
2018-06-19T13:52:58.674Z,18.70
2018-06-19T13:57:44.232Z,18.80
2018-06-19T14:00:25.639Z,18.80
2018-06-19T14:03:07.269Z,18.90
2018-06-19T14:05:40.109Z,18.90
2018-06-19T14:08:21.334Z,19.00
2018-06-19T14:11:07.480Z,19.00
2018-06-19T14:13:43.798Z,19.10
2018-06-19T14:16:19.181Z,19.20
2018-06-19T14:18:52.444Z,19.40
2018-06-19T14:21:29.300Z,19.40
2018-06-19T14:24:03.728Z,19.60
2018-06-19T14:26:47.765Z,19.90
2018-06-19T14:29:22.303Z,20.40
2018-06-19T14:34:55.762Z,21.60
2018-06-19T14:41:17.025Z,23.30
2018-06-19T14:43:50.624Z,24.20
2018-06-19T14:46:25.532Z,25.00
2018-06-19T14:48:58.481Z,25.40
2018-06-19T14:51:46.895Z,25.80
2018-06-19T14:54:24.948Z,25.70
2018-06-19T14:57:10.697Z,26.20
2018-06-19T14:59:48.378Z,26.90
2018-06-19T15:06:24.226Z,27.90
2018-06-19T15:09:04.838Z,27.60
2018-06-19T15:11:48.879Z,26.80
2018-06-19T15:14:23.963Z,26.60
2018-06-19T15:16:58.761Z,26.40
2018-06-19T15:19:50.196Z,26.20
2018-06-19T15:34:47.073Z,27.80
2018-06-19T15:43:44.672Z,28.30
2018-06-19T15:47:01.065Z,28.50
2018-06-19T15:49:35.934Z,28.50
2018-06-19T16:17:01.546Z,29.90
2018-06-19T16:29:07.628Z,28.50
2018-06-19T16:33:18.365Z,29.50
2018-06-19T16:39:32.335Z,29.90
2018-06-19T16:42:29.972Z,30.10
2018-06-19T16:45:05.136Z,30.30
2018-06-19T16:47:44.314Z,30.20
2018-06-19T16:50:47.613Z,30.70
2018-06-19T16:53:24.718Z,30.50
2018-06-19T16:56:01.429Z,30.20
2018-06-19T17:01:52.395Z,28.10
2018-06-19T17:17:31.329Z,31.10
2018-06-19T17:20:06.895Z,30.70
2018-06-19T17:22:42.128Z,31.00
2018-06-19T17:28:17.815Z,30.80
2018-06-19T17:33:12.749Z,30.80
2018-06-19T17:39:00.628Z,30.10
2018-06-19T17:41:43.500Z,29.70
2018-06-19T17:44:37.976Z,29.70
2018-06-19T17:47:28.949Z,30.30
2018-06-19T17:50:07.538Z,29.80
2018-06-19T17:52:41.778Z,28.00
2018-06-19T17:58:15.783Z,29.50
2018-06-19T18:00:50.404Z,29.50
2018-06-19T18:03:27.217Z,29.50
2018-06-19T18:06:03.541Z,29.00
2018-06-19T18:08:42.495Z,28.90
2018-06-19T18:11:20.818Z,29.50
2018-06-19T18:14:02.106Z,29.70
2018-06-19T18:16:38.196Z,30.70
2018-06-19T18:19:26.774Z,30.90
2018-06-19T18:27:16.565Z,31.50
2018-06-19T18:29:58.384Z,32.60
2018-06-19T18:32:45.870Z,33.10
2018-06-19T18:35:28.288Z,32.90
2018-06-19T18:38:10.984Z,32.50
2018-06-19T18:40:57.901Z,32.20
2018-06-19T18:43:36.370Z,32.70
2018-06-19T18:46:10.910Z,33.00
2018-06-19T18:48:54.507Z,32.30
2018-06-19T18:52:52.380Z,31.20
2018-06-19T18:55:31.167Z,31.10
2018-06-19T18:58:05.426Z,32.30
2018-06-19T19:00:49.431Z,32.80
2018-06-19T19:09:39.155Z,33.30
2018-06-19T19:12:18.199Z,33.30
2018-06-19T19:14:55.888Z,33.30
2018-06-19T19:17:35.620Z,33.70
2018-06-19T19:20:19.204Z,33.60
2018-06-19T19:23:46.797Z,33.20
2018-06-19T19:26:30.327Z,32.90
2018-06-19T19:29:09.218Z,33.00
2018-06-19T19:31:49.924Z,33.40
2018-06-19T19:37:28.896Z,31.90
2018-06-19T19:40:25.476Z,31.80
2018-06-19T19:49:57.150Z,32.80
2018-06-19T20:03:39.167Z,32.60
2018-06-19T20:06:21.269Z,32.20
2018-06-19T20:09:07.024Z,32.30
2018-06-19T20:12:01.451Z,32.80
2018-06-19T20:14:41.884Z,32.80
2018-06-19T20:20:57.828Z,32.60
2018-06-19T20:23:46.998Z,32.30
2018-06-19T20:26:29.604Z,32.50
2018-06-19T20:40:23.263Z,32.20
2018-06-19T20:49:51.192Z,32.70
2018-06-19T20:52:46.374Z,32.30
2018-06-19T20:58:06.577Z,29.30
2018-06-19T21:00:43.513Z,27.80
2018-06-19T21:03:19.386Z,26.70
2018-06-19T21:05:55.511Z,25.90
2018-06-19T21:08:33.854Z,25.30
2018-06-19T21:14:16.672Z,24.50
2018-06-19T21:19:39.601Z,24.90
2018-06-19T21:22:20.818Z,25.60
2018-06-19T21:25:00.938Z,25.70
2018-06-19T21:27:43.363Z,26.00
2018-06-19T21:30:39.230Z,26.50
2018-06-19T21:33:11.812Z,26.70
2018-06-19T21:35:46.426Z,26.70
2018-06-19T21:38:41.342Z,27.20
2018-06-19T21:42:36.293Z,27.70
2018-06-19T21:45:14.955Z,28.00
2018-06-19T21:47:48.630Z,28.60
2018-06-19T21:56:28.059Z,29.00
2018-06-19T21:59:09.368Z,28.90
2018-06-19T22:01:54.442Z,28.70
2018-06-19T22:07:36.789Z,27.80
2018-06-19T22:17:02.922Z,28.20
2018-06-19T22:19:37.665Z,27.70
2018-06-19T22:22:27.985Z,26.50
2018-06-19T22:25:05.085Z,25.30
2018-06-19T22:27:43.491Z,24.70
2018-06-19T22:30:17.638Z,23.70
2018-06-19T22:32:53.757Z,23.00
2018-06-19T22:35:33.633Z,22.30
2018-06-19T22:38:12.832Z,22.10
2018-06-19T22:43:35.548Z,21.60
2018-06-19T22:46:09.417Z,21.30
2018-06-19T22:48:46.042Z,20.80
2018-06-19T22:53:59.267Z,20.50
2018-06-19T22:56:40.813Z,20.50
2018-06-19T22:59:26.449Z,20.40
2018-06-19T23:02:02.391Z,20.40
2018-06-19T23:04:36.664Z,20.40
2018-06-19T23:07:09.940Z,20.40
2018-06-19T23:09:45.164Z,20.40
2018-06-19T23:12:21.304Z,20.20
2018-06-19T23:14:53.427Z,20.10
2018-06-19T23:17:33.643Z,19.90
2018-06-19T23:20:08.443Z,19.80
2018-06-19T23:22:49.913Z,19.80
2018-06-19T23:25:23.464Z,19.80
2018-06-19T23:28:00.030Z,19.80
2018-06-19T23:30:41.312Z,19.80
2018-06-19T23:38:48.623Z,19.50
2018-06-19T23:44:42.139Z,19.90
2018-06-19T23:47:21.600Z,20.00
2018-06-19T23:50:16.209Z,20.00
2018-06-19T23:52:50.502Z,19.90
2018-06-19T23:55:30.958Z,19.90
2018-06-19T23:58:03.945Z,19.70
